createdAt,value
2022-10-21T00:00:41.895Z,24.58
2022-10-21T00:03:09.572Z,21.38
2022-10-21T00:05:36.935Z,19.67
2022-10-21T00:08:04.363Z,20.25
2022-10-21T00:10:31.727Z,22.58
2022-10-21T00:12:59.093Z,22.83
2022-10-21T00:15:26.450Z,21.40
2022-10-21T00:17:53.755Z,23.50
2022-10-21T00:22:48.480Z,25.02
2022-10-21T00:25:15.886Z,23.77
2022-10-21T00:27:43.284Z,24.38
2022-10-21T00:30:12.959Z,22.90
2022-10-21T00:32:40.588Z,18.88
2022-10-21T00:35:08.427Z,23.02
2022-10-21T00:37:35.970Z,19.60
2022-10-21T00:40:04.372Z,19.55
2022-10-21T00:42:39.642Z,20.33
2022-10-21T00:45:09.519Z,18.92
2022-10-21T00:47:55.782Z,19.15
2022-10-21T00:50:27.192Z,18.58
2022-10-21T00:52:57.419Z,18.40
2022-10-21T00:55:27.641Z,18.92
2022-10-21T00:57:55.787Z,19.60
2022-10-21T01:00:23.182Z,23.77
2022-10-21T01:02:50.721Z,21.60
2022-10-21T01:05:18.618Z,22.23
2022-10-21T01:07:50.057Z,26.83
2022-10-21T01:10:18.558Z,26.33
2022-10-21T01:13:03.944Z,21.52
2022-10-21T01:15:37.257Z,24.10
2022-10-21T01:18:19.770Z,23.63
2022-10-21T01:21:35.196Z,25.45
2022-10-21T01:24:38.998Z,28.77
2022-10-21T01:27:21.118Z,25.65
2022-10-21T01:30:04.901Z,35.72
2022-10-21T01:32:41.158Z,29.17
2022-10-21T01:35:26.611Z,33.95
2022-10-21T01:38:04.321Z,30.05
2022-10-21T01:40:57.759Z,26.83
2022-10-21T01:43:37.360Z,30.90
2022-10-21T01:46:16.797Z,26.27
2022-10-21T01:48:51.031Z,27.52
2022-10-21T01:51:20.481Z,31.23
2022-10-21T01:53:57.204Z,22.95
2022-10-21T01:56:26.593Z,27.50
2022-10-21T01:58:54.857Z,24.83
2022-10-21T02:01:23.001Z,31.85
2022-10-21T02:03:56.733Z,27.95
2022-10-21T02:06:25.298Z,25.92
2022-10-21T02:08:52.827Z,27.02
2022-10-21T02:11:20.290Z,27.83
2022-10-21T02:14:02.458Z,31.33
2022-10-21T02:16:35.473Z,24.55
2022-10-21T02:19:03.101Z,31.05
2022-10-21T02:21:35.167Z,26.30
2022-10-21T02:24:13.865Z,27.85
2022-10-21T02:26:41.377Z,26.27
2022-10-21T02:29:09.613Z,25.63
2022-10-21T02:31:51.953Z,28.25
2022-10-21T02:34:37.858Z,36.55
2022-10-21T02:37:20.227Z,27.90
2022-10-21T02:40:01.046Z,31.95
2022-10-21T02:42:33.911Z,26.48
2022-10-21T02:45:02.918Z,29.02
2022-10-21T02:47:30.289Z,31.65
2022-10-21T02:49:57.534Z,28.33
2022-10-21T02:52:24.848Z,25.00
2022-10-21T02:54:52.110Z,28.45
2022-10-21T02:57:19.426Z,27.67
2022-10-21T02:59:46.749Z,29.88
2022-10-21T03:02:14.028Z,35.58
2022-10-21T03:04:41.419Z,27.75
2022-10-21T03:07:08.780Z,35.80
2022-10-21T03:09:36.071Z,33.67
2022-10-21T03:12:03.504Z,29.10
2022-10-21T03:14:30.871Z,30.60
2022-10-21T03:16:58.207Z,26.70
2022-10-21T03:19:25.496Z,26.27
2022-10-21T03:21:52.791Z,32.25
2022-10-21T03:24:28.425Z,28.48
2022-10-21T03:26:56.681Z,29.30
2022-10-21T03:29:24.118Z,33.40
2022-10-21T03:31:51.383Z,33.15
2022-10-21T03:34:18.701Z,27.98
2022-10-21T03:36:46.096Z,32.90
2022-10-21T03:39:13.561Z,38.00
2022-10-21T03:41:40.912Z,31.23
2022-10-21T03:44:08.339Z,25.73
2022-10-21T03:46:35.733Z,30.08
2022-10-21T03:49:04.976Z,28.50
2022-10-21T03:51:34.132Z,39.60
2022-10-21T03:54:01.469Z,31.27
2022-10-21T03:56:28.867Z,38.15
2022-10-21T03:58:58.638Z,31.88
2022-10-21T04:01:26.801Z,32.50
2022-10-21T04:03:54.269Z,31.50
2022-10-21T04:06:21.671Z,29.25
2022-10-21T04:08:49.100Z,33.55
2022-10-21T04:11:16.446Z,32.55
2022-10-21T04:13:43.845Z,31.65
2022-10-21T04:16:16.666Z,33.80
2022-10-21T04:18:44.076Z,33.35
2022-10-21T04:21:11.711Z,34.13
2022-10-21T04:23:39.332Z,32.55
2022-10-21T04:26:07.463Z,36.05
2022-10-21T04:28:35.097Z,32.92
2022-10-21T04:31:02.597Z,34.95
2022-10-21T04:33:29.856Z,27.77
2022-10-21T04:35:58.925Z,35.28
2022-10-21T04:38:27.345Z,29.02
2022-10-21T04:40:58.982Z,29.67
2022-10-21T04:43:27.106Z,31.50
2022-10-21T04:45:54.573Z,45.03
2022-10-21T04:48:22.629Z,32.35
2022-10-21T04:50:51.725Z,33.92
2022-10-21T04:53:19.425Z,36.80
2022-10-21T04:55:51.023Z,38.80
2022-10-21T04:58:20.990Z,30.08
2022-10-21T05:00:50.610Z,31.67
2022-10-21T05:03:19.155Z,34.90
2022-10-21T05:05:50.405Z,30.63
2022-10-21T05:08:18.399Z,38.55
2022-10-21T05:10:45.749Z,33.22
2022-10-21T05:13:13.077Z,28.85
2022-10-21T05:15:40.370Z,31.80
2022-10-21T05:18:07.724Z,33.33
2022-10-21T05:20:35.264Z,28.55
2022-10-21T05:23:02.495Z,31.25
2022-10-21T05:25:31.844Z,29.88
2022-10-21T05:30:28.842Z,33.55
2022-10-21T05:32:56.208Z,33.10
2022-10-21T05:35:23.504Z,31.02
2022-10-21T05:37:50.892Z,33.92
2022-10-21T05:40:18.873Z,31.05
2022-10-21T05:42:46.316Z,29.80
2022-10-21T05:45:13.981Z,23.50
2022-10-21T05:47:41.765Z,27.88
2022-10-21T05:50:10.883Z,31.48
2022-10-21T05:52:38.911Z,28.00
2022-10-21T05:55:07.962Z,29.95
2022-10-21T05:57:36.900Z,30.60
2022-10-21T06:00:06.155Z,30.67
2022-10-21T06:02:33.663Z,30.77
2022-10-21T06:05:01.146Z,31.05
2022-10-21T06:07:28.484Z,32.25
2022-10-21T06:09:55.854Z,34.67
2022-10-21T06:12:23.220Z,24.88
2022-10-21T06:14:50.761Z,33.33
2022-10-21T06:17:19.103Z,27.75
2022-10-21T06:19:50.027Z,27.55
2022-10-21T06:24:47.026Z,31.33
2022-10-21T06:27:14.416Z,32.63
2022-10-21T06:29:41.798Z,34.70
2022-10-21T06:32:09.079Z,30.70
2022-10-21T06:34:36.462Z,35.25
2022-10-21T06:37:03.817Z,32.65
2022-10-21T06:39:31.116Z,33.38
2022-10-21T06:41:58.367Z,31.20
2022-10-21T06:44:40.266Z,32.95
2022-10-21T06:47:08.186Z,31.73
2022-10-21T06:49:35.623Z,32.58
2022-10-21T06:52:02.976Z,29.13
2022-10-21T06:54:30.385Z,28.35
2022-10-21T06:56:57.739Z,33.70
2022-10-21T06:59:25.073Z,33.67
2022-10-21T07:02:00.855Z,33.33
2022-10-21T07:04:29.020Z,29.15
2022-10-21T07:06:56.385Z,37.42
2022-10-21T07:09:23.879Z,30.38
2022-10-21T07:11:51.306Z,27.10
2022-10-21T07:14:18.621Z,28.15
2022-10-21T07:16:46.204Z,34.00
2022-10-21T07:19:14.222Z,36.60
2022-10-21T07:21:41.564Z,39.33
2022-10-21T07:24:10.520Z,35.03
2022-10-21T07:26:38.154Z,31.80
2022-10-21T07:29:05.624Z,29.25
2022-10-21T07:31:36.338Z,39.85
2022-10-21T07:34:06.351Z,36.70
2022-10-21T07:36:36.775Z,35.13
2022-10-21T07:39:07.912Z,37.10
2022-10-21T07:41:37.958Z,35.67
2022-10-21T07:44:06.107Z,32.88
2022-10-21T07:46:33.668Z,36.38
2022-10-21T07:49:01.234Z,33.10
2022-10-21T07:51:31.269Z,33.22
2022-10-21T07:54:00.808Z,37.85
2022-10-21T07:56:31.103Z,36.58
2022-10-21T07:58:58.656Z,30.88
2022-10-21T08:01:26.222Z,41.85
2022-10-21T08:03:55.343Z,37.42
2022-10-21T08:06:24.015Z,37.78
2022-10-21T08:08:51.469Z,35.70
2022-10-21T08:11:27.717Z,41.60
2022-10-21T08:13:56.007Z,46.20
2022-10-21T08:16:23.545Z,39.53
2022-10-21T08:18:51.125Z,46.85
2022-10-21T08:21:18.488Z,39.67
2022-10-21T08:23:45.808Z,51.85
2022-10-21T08:26:15.747Z,40.88
2022-10-21T08:28:43.551Z,50.70
2022-10-21T08:31:16.413Z,48.22
2022-10-21T08:33:44.539Z,46.95
2022-10-21T08:36:17.511Z,50.13
2022-10-21T08:38:45.345Z,45.10
2022-10-21T08:41:30.749Z,45.13
2022-10-21T08:44:21.583Z,48.83
2022-10-21T08:47:10.246Z,38.97
2022-10-21T08:49:37.516Z,41.97
2022-10-21T08:52:09.871Z,39.63
2022-10-21T08:54:48.912Z,45.97
2022-10-21T08:57:16.534Z,46.65
2022-10-21T08:59:43.993Z,47.30
2022-10-21T09:02:17.412Z,45.40
2022-10-21T09:04:54.804Z,40.22
2022-10-21T09:07:37.232Z,46.97
2022-10-21T09:10:20.772Z,48.67
2022-10-21T09:13:22.864Z,48.28
2022-10-21T09:16:04.793Z,36.20
2022-10-21T09:21:29.371Z,37.00
2022-10-21T09:24:11.884Z,34.72
2022-10-21T09:26:42.519Z,34.30
2022-10-21T09:29:20.771Z,25.90
2022-10-21T09:31:55.237Z,24.70
2022-10-21T09:34:40.076Z,24.92
2022-10-21T09:37:22.494Z,22.08
2022-10-21T09:40:03.424Z,21.90
2022-10-21T09:42:47.086Z,19.00
2022-10-21T09:45:26.696Z,20.45
2022-10-21T09:47:58.661Z,16.83
2022-10-21T09:50:26.955Z,19.50
2022-10-21T09:53:13.779Z,15.43
2022-10-21T09:55:41.550Z,17.65
2022-10-21T09:58:25.915Z,21.52
2022-10-21T10:00:54.363Z,16.40
2022-10-21T10:03:45.695Z,14.57
2022-10-21T10:06:13.453Z,19.83
2022-10-21T10:08:49.156Z,20.95
2022-10-21T10:11:21.604Z,20.02
2022-10-21T10:13:51.741Z,14.57
2022-10-21T10:16:23.772Z,16.45
2022-10-21T10:19:11.110Z,23.77
2022-10-21T10:21:38.580Z,21.80
2022-10-21T10:24:05.940Z,20.88
2022-10-21T10:26:37.562Z,15.35
2022-10-21T10:29:15.830Z,17.65
2022-10-21T10:31:58.323Z,18.58
2022-10-21T10:34:37.048Z,19.63
2022-10-21T10:37:19.905Z,16.77
2022-10-21T10:39:50.579Z,16.65
2022-10-21T10:42:25.713Z,19.85
2022-10-21T10:45:13.006Z,17.08
2022-10-21T10:47:48.190Z,20.95
2022-10-21T10:50:43.336Z,19.17
2022-10-21T10:53:29.787Z,20.98
2022-10-21T10:56:03.212Z,24.77
2022-10-21T10:58:34.648Z,20.73
2022-10-21T11:01:08.251Z,22.15
2022-10-21T11:03:44.936Z,20.20
2022-10-21T11:06:41.486Z,20.05
2022-10-21T11:09:09.564Z,18.73
2022-10-21T11:11:44.479Z,20.20
2022-10-21T11:14:20.263Z,25.02
2022-10-21T11:17:00.051Z,17.98
2022-10-21T11:19:42.190Z,22.52
2022-10-21T11:22:36.307Z,16.35
2022-10-21T11:25:05.174Z,19.40
2022-10-21T11:27:51.894Z,27.40
2022-10-21T11:30:48.382Z,23.20
2022-10-21T11:33:15.692Z,22.52
2022-10-21T11:35:56.758Z,25.50
2022-10-21T11:41:09.907Z,23.38
2022-10-21T11:43:51.720Z,18.70
2022-10-21T11:46:32.879Z,24.13
2022-10-21T11:49:03.010Z,22.77
2022-10-21T11:51:45.146Z,22.95
2022-10-21T11:54:24.418Z,23.83
2022-10-21T11:57:02.815Z,19.00
2022-10-21T11:59:52.493Z,22.48
2022-10-21T12:02:28.835Z,24.92
2022-10-21T12:05:14.996Z,22.27
2022-10-21T12:07:58.883Z,28.52
2022-10-21T12:10:41.478Z,28.73
2022-10-21T12:13:14.610Z,28.88
2022-10-21T12:15:50.185Z,32.20
2022-10-21T12:18:21.739Z,34.63
2022-10-21T12:20:52.104Z,27.85
2022-10-21T12:23:22.092Z,31.63
2022-10-21T12:26:07.322Z,30.15
2022-10-21T12:28:56.763Z,28.98
2022-10-21T12:31:39.635Z,28.98
2022-10-21T12:34:10.238Z,29.67
2022-10-21T12:36:40.998Z,26.95
2022-10-21T12:39:34.026Z,29.20
2022-10-21T12:42:14.262Z,29.33
2022-10-21T12:44:50.192Z,28.88
2022-10-21T12:47:45.929Z,28.55
2022-10-21T12:50:31.590Z,24.58
2022-10-21T12:53:05.295Z,22.35
2022-10-21T12:55:40.743Z,27.00
2022-10-21T12:58:30.716Z,18.75
2022-10-21T13:00:59.508Z,18.15
2022-10-21T13:03:45.310Z,22.40
2022-10-21T13:06:13.121Z,21.70
2022-10-21T13:08:55.510Z,21.27
2022-10-21T13:11:37.673Z,18.42
2022-10-21T13:14:16.867Z,15.63
2022-10-21T13:16:44.375Z,15.27
2022-10-21T13:19:17.799Z,18.65
2022-10-21T13:21:49.498Z,17.20
2022-10-21T13:24:30.247Z,20.55
2022-10-21T13:27:01.543Z,18.17
2022-10-21T13:29:37.656Z,16.02
2022-10-21T13:32:21.729Z,18.40
2022-10-21T13:34:49.122Z,24.75
2022-10-21T13:37:26.509Z,18.95
2022-10-21T13:39:56.148Z,17.73
2022-10-21T13:42:24.960Z,15.75
2022-10-21T13:45:01.389Z,20.65
2022-10-21T13:47:35.544Z,17.42
2022-10-21T13:50:14.375Z,19.10
2022-10-21T13:52:45.098Z,19.52
2022-10-21T13:55:21.129Z,15.43
2022-10-21T13:57:50.533Z,17.15
2022-10-21T14:00:18.183Z,16.88
2022-10-21T14:02:54.566Z,15.02
2022-10-21T14:05:38.990Z,17.42
2022-10-21T14:08:34.570Z,20.50
2022-10-21T14:11:19.761Z,14.93
2022-10-21T14:13:49.051Z,16.90
2022-10-21T14:16:38.406Z,17.02
2022-10-21T14:19:10.913Z,15.88
2022-10-21T14:21:42.646Z,17.30
2022-10-21T14:24:37.215Z,19.27
2022-10-21T14:27:05.328Z,25.25
2022-10-21T14:29:35.399Z,20.77
2022-10-21T14:32:04.444Z,16.10
2022-10-21T14:34:34.649Z,21.85
2022-10-21T14:37:11.835Z,21.38
2022-10-21T14:39:39.931Z,17.08
2022-10-21T14:42:16.487Z,21.77
2022-10-21T14:44:46.685Z,19.85
2022-10-21T14:47:23.738Z,15.63
2022-10-21T14:49:56.206Z,17.17
2022-10-21T14:52:30.001Z,17.75
2022-10-21T14:55:13.926Z,14.88
2022-10-21T14:57:49.861Z,13.77
2022-10-21T15:00:20.289Z,17.40
2022-10-21T15:02:48.896Z,13.90
2022-10-21T15:05:48.805Z,16.92
2022-10-21T15:08:22.837Z,15.95
2022-10-21T15:11:05.594Z,17.48
2022-10-21T15:13:33.722Z,16.85
2022-10-21T15:16:03.872Z,16.40
2022-10-21T15:18:36.644Z,11.73
2022-10-21T15:21:08.383Z,17.08
2022-10-21T15:23:37.882Z,16.80
2022-10-21T15:26:18.607Z,15.60
2022-10-21T15:28:46.154Z,13.80
2022-10-21T15:31:19.767Z,16.23
2022-10-21T15:33:49.614Z,13.63
2022-10-21T15:36:18.956Z,13.55
2022-10-21T15:38:47.688Z,17.38
2022-10-21T15:41:24.738Z,17.67
2022-10-21T15:44:26.717Z,13.68
2022-10-21T15:47:00.395Z,15.38
2022-10-21T15:49:33.023Z,14.27
2022-10-21T15:52:00.638Z,15.30
2022-10-21T15:54:28.007Z,18.83
2022-10-21T15:56:55.729Z,13.30
2022-10-21T15:59:29.204Z,14.07
2022-10-21T16:01:56.953Z,15.13
2022-10-21T16:04:24.562Z,16.05
2022-10-21T16:06:53.007Z,16.00
2022-10-21T16:09:29.951Z,17.05
2022-10-21T16:12:00.734Z,14.65
2022-10-21T16:14:30.814Z,16.30
2022-10-21T16:16:59.264Z,13.32
2022-10-21T16:19:27.167Z,17.95
2022-10-21T16:21:54.852Z,16.10
2022-10-21T16:24:22.467Z,14.48
2022-10-21T16:26:50.228Z,13.27
2022-10-21T16:29:25.459Z,14.13
2022-10-21T16:31:53.239Z,14.65
2022-10-21T16:34:20.571Z,14.20
2022-10-21T16:36:47.985Z,12.25
2022-10-21T16:39:22.058Z,13.77
2022-10-21T16:41:49.408Z,13.55
2022-10-21T16:44:16.870Z,13.15
2022-10-21T16:46:52.648Z,15.27
2022-10-21T16:49:25.238Z,14.48
2022-10-21T16:51:53.254Z,15.13
2022-10-21T16:54:22.603Z,16.05
2022-10-21T16:56:53.312Z,12.77
2022-10-21T16:59:23.237Z,15.15
2022-10-21T17:01:51.570Z,19.30
2022-10-21T17:04:18.985Z,19.95
2022-10-21T17:06:46.288Z,16.42
2022-10-21T17:09:13.855Z,18.95
2022-10-21T17:11:42.533Z,23.67
2022-10-21T17:14:18.856Z,19.38
2022-10-21T17:16:46.680Z,30.83
2022-10-21T17:19:15.033Z,23.67
2022-10-21T17:21:42.657Z,26.90
2022-10-21T17:24:15.474Z,35.15
2022-10-21T17:26:42.932Z,24.70
2022-10-21T17:29:11.701Z,23.25
2022-10-21T17:31:41.515Z,21.13
2022-10-21T17:34:24.373Z,23.23
2022-10-21T17:36:51.748Z,18.70
2022-10-21T17:39:19.059Z,18.27
2022-10-21T17:44:14.852Z,15.57
2022-10-21T17:46:42.495Z,14.68
2022-10-21T17:49:10.545Z,18.25
2022-10-21T17:51:37.853Z,14.70
2022-10-21T17:54:05.246Z,19.15
2022-10-21T17:56:32.540Z,16.30
2022-10-21T17:59:01.291Z,13.52
2022-10-21T18:01:28.643Z,17.73
2022-10-21T18:03:58.158Z,20.50
2022-10-21T18:06:26.268Z,15.45
2022-10-21T18:08:53.884Z,18.60
2022-10-21T18:11:21.334Z,13.43
2022-10-21T18:13:53.428Z,12.38
2022-10-21T18:16:23.665Z,13.40
2022-10-21T18:18:52.306Z,17.60
2022-10-21T18:21:23.852Z,21.30
2022-10-21T18:23:52.762Z,19.15
2022-10-21T18:26:25.494Z,21.08
2022-10-21T18:28:58.109Z,19.33
2022-10-21T18:31:28.190Z,19.05
2022-10-21T18:33:56.865Z,18.13
2022-10-21T18:36:24.663Z,16.13
2022-10-21T18:38:52.196Z,19.60
2022-10-21T18:41:21.210Z,17.38
2022-10-21T18:43:54.852Z,18.15
2022-10-21T18:46:23.095Z,19.02
2022-10-21T18:48:50.944Z,21.75
2022-10-21T18:51:19.944Z,16.10
2022-10-21T18:53:49.934Z,19.83
2022-10-21T18:56:22.316Z,17.40
2022-10-21T18:58:50.689Z,19.88
2022-10-21T19:01:20.361Z,22.02
2022-10-21T19:03:47.816Z,17.08
2022-10-21T19:06:33.232Z,19.85
2022-10-21T19:09:02.381Z,16.30
2022-10-21T19:11:29.984Z,16.33
2022-10-21T19:13:57.368Z,14.35
2022-10-21T19:16:24.768Z,18.38
2022-10-21T19:21:38.749Z,15.57
2022-10-21T19:24:06.891Z,15.30
2022-10-21T19:26:36.293Z,21.35
2022-10-21T19:29:07.595Z,20.90
2022-10-21T19:31:36.430Z,12.20
2022-10-21T19:34:07.443Z,13.95
2022-10-21T19:36:35.178Z,14.68
2022-10-21T19:39:02.568Z,12.02
2022-10-21T19:41:29.944Z,11.85
2022-10-21T19:43:58.484Z,14.23
2022-10-21T19:46:29.293Z,11.85
2022-10-21T19:48:56.744Z,13.50
2022-10-21T19:51:25.706Z,12.02
2022-10-21T19:53:54.283Z,11.40
2022-10-21T19:56:26.868Z,14.43
2022-10-21T19:58:56.241Z,11.73
2022-10-21T20:01:26.587Z,12.50
2022-10-21T20:03:55.238Z,17.45
2022-10-21T20:06:25.737Z,16.73
2022-10-21T20:08:58.929Z,18.13
2022-10-21T20:11:27.663Z,20.33
2022-10-21T20:13:55.624Z,18.25
2022-10-21T20:16:24.311Z,19.15
2022-10-21T20:18:52.062Z,17.25
2022-10-21T20:21:19.877Z,17.00
2022-10-21T20:23:47.208Z,22.90
2022-10-21T20:26:14.547Z,20.00
2022-10-21T20:28:42.499Z,17.17
2022-10-21T20:31:15.492Z,17.80
2022-10-21T20:33:48.259Z,15.38
2022-10-21T20:36:19.739Z,18.15
2022-10-21T20:38:47.685Z,17.13
2022-10-21T20:41:21.547Z,15.63
2022-10-21T20:43:49.999Z,14.88
2022-10-21T20:46:18.654Z,13.57
2022-10-21T20:48:48.403Z,13.27
2022-10-21T20:51:24.178Z,18.58
2022-10-21T20:53:57.320Z,12.48
2022-10-21T20:56:31.057Z,15.27
2022-10-21T20:58:58.848Z,14.18
2022-10-21T21:01:28.831Z,15.30
2022-10-21T21:03:58.286Z,14.15
2022-10-21T21:06:26.277Z,10.77
2022-10-21T21:09:15.193Z,11.07
2022-10-21T21:11:41.432Z,14.63
2022-10-21T21:14:08.728Z,19.35
2022-10-21T21:16:36.399Z,16.48
2022-10-21T21:19:06.119Z,15.95
2022-10-21T21:21:36.318Z,18.98
2022-10-21T21:24:04.212Z,13.52
2022-10-21T21:26:37.148Z,16.80
2022-10-21T21:29:06.391Z,18.98
2022-10-21T21:31:35.188Z,16.13
2022-10-21T21:34:03.184Z,19.50
2022-10-21T21:36:30.555Z,16.13
2022-10-21T21:38:58.074Z,15.65
2022-10-21T21:41:26.739Z,16.42
2022-10-21T21:43:54.809Z,13.25
2022-10-21T21:46:23.832Z,15.32
2022-10-21T21:49:00.863Z,13.68
2022-10-21T21:51:30.975Z,19.00
2022-10-21T21:53:59.141Z,16.17
2022-10-21T21:56:28.115Z,16.50
2022-10-21T21:58:57.602Z,11.40
2022-10-21T22:01:27.581Z,16.55
2022-10-21T22:03:55.890Z,13.30
2022-10-21T22:09:00.291Z,15.50
2022-10-21T22:11:30.747Z,11.23
2022-10-21T22:13:58.667Z,12.95
2022-10-21T22:16:30.280Z,12.65
2022-10-21T22:19:00.213Z,14.88
2022-10-21T22:21:28.450Z,18.50
2022-10-21T22:23:55.899Z,15.13
2022-10-21T22:26:23.855Z,15.50
2022-10-21T22:28:51.251Z,15.10
2022-10-21T22:31:18.891Z,15.25
2022-10-21T22:33:46.768Z,12.95
2022-10-21T22:36:16.503Z,15.18
2022-10-21T22:38:44.911Z,12.38
2022-10-21T22:41:12.885Z,20.40
2022-10-21T22:43:40.704Z,16.00
2022-10-21T22:46:29.288Z,14.77
2022-10-21T22:48:55.568Z,17.05
2022-10-21T22:51:22.905Z,12.63
2022-10-21T22:53:55.218Z,13.75
2022-10-21T22:56:27.879Z,14.60
2022-10-21T22:58:55.321Z,10.52
2022-10-21T23:01:24.168Z,12.32
2022-10-21T23:03:51.910Z,16.05
2022-10-21T23:06:19.306Z,13.02
2022-10-21T23:08:46.718Z,17.85
2022-10-21T23:11:14.760Z,12.55
2022-10-21T23:13:56.037Z,12.45
2022-10-21T23:16:29.480Z,15.80
2022-10-21T23:18:56.869Z,15.88
2022-10-21T23:21:24.215Z,12.02
2022-10-21T23:23:52.271Z,11.20
2022-10-21T23:26:19.668Z,13.45
2022-10-21T23:28:47.023Z,13.20
2022-10-21T23:31:14.383Z,13.07
2022-10-21T23:33:41.703Z,14.70
2022-10-21T23:36:09.149Z,14.13
2022-10-21T23:38:36.505Z,15.57
2022-10-21T23:41:03.954Z,13.02
2022-10-21T23:43:31.344Z,10.80
2022-10-21T23:45:58.723Z,13.93
2022-10-21T23:48:26.148Z,13.40
2022-10-21T23:50:53.483Z,11.63
2022-10-21T23:53:20.836Z,12.25
2022-10-21T23:55:48.193Z,13.43
2022-10-21T23:58:15.467Z,17.20
